sensor_id;sensor_type;location;lat;lon;timestamp;P1;durP1;ratioP1;P2;durP2;ratioP2
40595;SDS011;26304;48.794;9.820;2024-01-25T00:00:15;2.58;;;1.23;;
40595;SDS011;26304;48.794;9.820;2024-01-25T00:02:38;3.20;;;1.33;;
40595;SDS011;26304;48.794;9.820;2024-01-25T00:05:01;2.72;;;1.33;;
40595;SDS011;26304;48.794;9.820;2024-01-25T00:07:23;1.45;;;1.00;;
40595;SDS011;26304;48.794;9.820;2024-01-25T00:09:47;1.58;;;1.10;;
40595;SDS011;26304;48.794;9.820;2024-01-25T00:12:10;1.88;;;1.20;;
40595;SDS011;26304;48.794;9.820;2024-01-25T00:14:32;2.25;;;1.27;;
40595;SDS011;26304;48.794;9.820;2024-01-25T00:16:55;1.65;;;1.15;;
40595;SDS011;26304;48.794;9.820;2024-01-25T00:19:17;1.80;;;1.08;;
40595;SDS011;26304;48.794;9.820;2024-01-25T00:21:41;1.10;;;0.95;;
40595;SDS011;26304;48.794;9.820;2024-01-25T00:24:04;2.25;;;1.40;;
40595;SDS011;26304;48.794;9.820;2024-01-25T00:26:28;2.72;;;1.15;;
40595;SDS011;26304;48.794;9.820;2024-01-25T00:28:51;1.67;;;1.25;;
40595;SDS011;26304;48.794;9.820;2024-01-25T00:31:13;1.55;;;1.25;;
40595;SDS011;26304;48.794;9.820;2024-01-25T00:33:36;2.08;;;1.23;;
40595;SDS011;26304;48.794;9.820;2024-01-25T00:35:59;1.48;;;1.02;;
40595;SDS011;26304;48.794;9.820;2024-01-25T00:38:22;1.67;;;1.15;;
40595;SDS011;26304;48.794;9.820;2024-01-25T00:40:45;2.78;;;1.35;;
40595;SDS011;26304;48.794;9.820;2024-01-25T00:43:10;1.60;;;0.95;;
40595;SDS011;26304;48.794;9.820;2024-01-25T00:45:33;1.13;;;1.00;;
40595;SDS011;26304;48.794;9.820;2024-01-25T00:47:56;1.92;;;0.90;;
40595;SDS011;26304;48.794;9.820;2024-01-25T00:50:19;1.67;;;1.25;;
40595;SDS011;26304;48.794;9.820;2024-01-25T00:52:44;0.98;;;0.90;;
40595;SDS011;26304;48.794;9.820;2024-01-25T00:55:08;1.85;;;0.73;;
40595;SDS011;26304;48.794;9.820;2024-01-25T00:57:32;1.73;;;0.95;;
40595;SDS011;26304;48.794;9.820;2024-01-25T00:59:57;1.83;;;1.08;;
40595;SDS011;26304;48.794;9.820;2024-01-25T01:02:21;1.45;;;0.80;;
40595;SDS011;26304;48.794;9.820;2024-01-25T01:04:44;2.08;;;1.02;;
40595;SDS011;26304;48.794;9.820;2024-01-25T01:07:08;1.60;;;1.00;;
40595;SDS011;26304;48.794;9.820;2024-01-25T01:09:31;1.85;;;1.15;;
40595;SDS011;26304;48.794;9.820;2024-01-25T01:11:54;2.95;;;1.58;;
40595;SDS011;26304;48.794;9.820;2024-01-25T01:14:16;2.47;;;1.30;;
40595;SDS011;26304;48.794;9.820;2024-01-25T01:16:41;1.88;;;1.10;;
40595;SDS011;26304;48.794;9.820;2024-01-25T01:19:03;1.00;;;0.80;;
40595;SDS011;26304;48.794;9.820;2024-01-25T01:21:27;3.22;;;1.17;;
40595;SDS011;26304;48.794;9.820;2024-01-25T01:23:50;0.95;;;0.75;;
40595;SDS011;26304;48.794;9.820;2024-01-25T01:26:12;1.60;;;0.85;;
40595;SDS011;26304;48.794;9.820;2024-01-25T01:28:35;1.33;;;0.80;;
40595;SDS011;26304;48.794;9.820;2024-01-25T01:30:57;1.95;;;0.98;;
40595;SDS011;26304;48.794;9.820;2024-01-25T01:33:21;1.30;;;0.93;;
40595;SDS011;26304;48.794;9.820;2024-01-25T01:35:44;1.25;;;0.85;;
40595;SDS011;26304;48.794;9.820;2024-01-25T01:38:07;1.75;;;1.00;;
40595;SDS011;26304;48.794;9.820;2024-01-25T01:40:29;1.30;;;0.75;;
40595;SDS011;26304;48.794;9.820;2024-01-25T01:42:52;1.50;;;1.02;;
40595;SDS011;26304;48.794;9.820;2024-01-25T01:45:21;1.83;;;1.02;;
40595;SDS011;26304;48.794;9.820;2024-01-25T01:47:43;1.50;;;0.95;;
40595;SDS011;26304;48.794;9.820;2024-01-25T01:50:08;1.27;;;0.80;;
40595;SDS011;26304;48.794;9.820;2024-01-25T01:52:31;1.20;;;0.90;;
40595;SDS011;26304;48.794;9.820;2024-01-25T01:54:54;1.33;;;1.02;;
40595;SDS011;26304;48.794;9.820;2024-01-25T01:57:17;2.35;;;1.20;;
40595;SDS011;26304;48.794;9.820;2024-01-25T01:59:40;1.65;;;1.00;;
40595;SDS011;26304;48.794;9.820;2024-01-25T02:02:03;1.60;;;0.90;;
40595;SDS011;26304;48.794;9.820;2024-01-25T02:04:26;1.42;;;0.90;;
40595;SDS011;26304;48.794;9.820;2024-01-25T02:06:50;1.85;;;1.05;;
40595;SDS011;26304;48.794;9.820;2024-01-25T02:09:13;1.20;;;1.00;;
40595;SDS011;26304;48.794;9.820;2024-01-25T02:11:35;1.38;;;0.80;;
40595;SDS011;26304;48.794;9.820;2024-01-25T02:13:58;0.95;;;0.70;;
40595;SDS011;26304;48.794;9.820;2024-01-25T02:16:20;1.40;;;1.10;;
40595;SDS011;26304;48.794;9.820;2024-01-25T02:18:43;1.15;;;0.93;;
40595;SDS011;26304;48.794;9.820;2024-01-25T02:21:05;1.20;;;1.00;;
40595;SDS011;26304;48.794;9.820;2024-01-25T02:23:29;1.50;;;0.85;;
40595;SDS011;26304;48.794;9.820;2024-01-25T02:25:52;1.83;;;1.10;;
40595;SDS011;26304;48.794;9.820;2024-01-25T02:28:15;1.92;;;0.95;;
40595;SDS011;26304;48.794;9.820;2024-01-25T02:30:37;1.45;;;1.10;;
40595;SDS011;26304;48.794;9.820;2024-01-25T02:33:00;1.40;;;0.85;;
40595;SDS011;26304;48.794;9.820;2024-01-25T02:35:22;1.58;;;0.75;;
40595;SDS011;26304;48.794;9.820;2024-01-25T02:37:45;2.58;;;1.13;;
40595;SDS011;26304;48.794;9.820;2024-01-25T02:40:10;2.05;;;1.02;;
40595;SDS011;26304;48.794;9.820;2024-01-25T02:42:33;1.30;;;0.70;;
40595;SDS011;26304;48.794;9.820;2024-01-25T02:44:56;1.40;;;0.68;;
40595;SDS011;26304;48.794;9.820;2024-01-25T02:47:18;1.20;;;0.93;;
40595;SDS011;26304;48.794;9.820;2024-01-25T02:49:41;1.02;;;0.93;;
40595;SDS011;26304;48.794;9.820;2024-01-25T02:52:04;1.45;;;0.80;;
40595;SDS011;26304;48.794;9.820;2024-01-25T02:54:27;1.60;;;0.80;;
40595;SDS011;26304;48.794;9.820;2024-01-25T02:56:52;2.50;;;0.90;;
40595;SDS011;26304;48.794;9.820;2024-01-25T02:59:14;1.63;;;0.88;;
40595;SDS011;26304;48.794;9.820;2024-01-25T03:01:37;1.88;;;0.73;;
40595;SDS011;26304;48.794;9.820;2024-01-25T03:04:01;1.60;;;1.00;;
40595;SDS011;26304;48.794;9.820;2024-01-25T03:06:24;1.02;;;0.80;;
40595;SDS011;26304;48.794;9.820;2024-01-25T03:08:46;1.30;;;0.85;;
40595;SDS011;26304;48.794;9.820;2024-01-25T03:11:09;2.60;;;1.33;;
40595;SDS011;26304;48.794;9.820;2024-01-25T03:13:33;1.20;;;0.60;;
40595;SDS011;26304;48.794;9.820;2024-01-25T03:15:56;1.38;;;0.68;;
40595;SDS011;26304;48.794;9.820;2024-01-25T03:18:18;1.35;;;0.93;;
40595;SDS011;26304;48.794;9.820;2024-01-25T03:20:41;1.30;;;0.63;;
40595;SDS011;26304;48.794;9.820;2024-01-25T03:23:04;1.23;;;0.80;;
40595;SDS011;26304;48.794;9.820;2024-01-25T03:25:26;1.05;;;0.75;;
40595;SDS011;26304;48.794;9.820;2024-01-25T03:27:49;1.92;;;1.08;;
40595;SDS011;26304;48.794;9.820;2024-01-25T03:30:13;0.80;;;0.65;;
40595;SDS011;26304;48.794;9.820;2024-01-25T03:32:36;1.60;;;0.90;;
40595;SDS011;26304;48.794;9.820;2024-01-25T03:34:59;1.38;;;1.00;;
40595;SDS011;26304;48.794;9.820;2024-01-25T03:37:21;1.98;;;1.00;;
40595;SDS011;26304;48.794;9.820;2024-01-25T03:39:44;1.50;;;0.70;;
40595;SDS011;26304;48.794;9.820;2024-01-25T03:42:07;0.90;;;0.70;;
40595;SDS011;26304;48.794;9.820;2024-01-25T03:44:29;1.88;;;0.93;;
40595;SDS011;26304;48.794;9.820;2024-01-25T03:46:53;0.82;;;0.70;;
40595;SDS011;26304;48.794;9.820;2024-01-25T03:49:16;1.85;;;1.15;;
40595;SDS011;26304;48.794;9.820;2024-01-25T03:51:39;0.88;;;0.57;;
40595;SDS011;26304;48.794;9.820;2024-01-25T03:54:02;1.75;;;0.70;;
40595;SDS011;26304;48.794;9.820;2024-01-25T03:56:25;1.35;;;0.77;;
40595;SDS011;26304;48.794;9.820;2024-01-25T03:58:48;1.00;;;0.82;;
40595;SDS011;26304;48.794;9.820;2024-01-25T04:01:11;1.50;;;0.85;;
40595;SDS011;26304;48.794;9.820;2024-01-25T04:03:36;1.38;;;0.73;;
40595;SDS011;26304;48.794;9.820;2024-01-25T04:05:58;0.85;;;0.82;;
40595;SDS011;26304;48.794;9.820;2024-01-25T04:08:21;0.88;;;0.80;;
40595;SDS011;26304;48.794;9.820;2024-01-25T04:10:44;1.60;;;0.70;;
40595;SDS011;26304;48.794;9.820;2024-01-25T04:13:06;0.98;;;0.70;;
40595;SDS011;26304;48.794;9.820;2024-01-25T04:15:29;0.80;;;0.60;;
40595;SDS011;26304;48.794;9.820;2024-01-25T04:17:52;1.17;;;0.80;;
40595;SDS011;26304;48.794;9.820;2024-01-25T04:20:16;1.30;;;0.80;;
40595;SDS011;26304;48.794;9.820;2024-01-25T04:22:38;1.45;;;0.80;;
40595;SDS011;26304;48.794;9.820;2024-01-25T04:25:01;0.95;;;0.73;;
40595;SDS011;26304;48.794;9.820;2024-01-25T04:27:24;1.13;;;0.80;;
40595;SDS011;26304;48.794;9.820;2024-01-25T04:29:46;1.13;;;0.73;;
40595;SDS011;26304;48.794;9.820;2024-01-25T04:32:09;0.98;;;0.50;;
40595;SDS011;26304;48.794;9.820;2024-01-25T04:34:32;1.25;;;0.70;;
40595;SDS011;26304;48.794;9.820;2024-01-25T04:36:56;1.05;;;0.63;;
40595;SDS011;26304;48.794;9.820;2024-01-25T04:39:18;2.88;;;0.80;;
40595;SDS011;26304;48.794;9.820;2024-01-25T04:41:41;0.73;;;0.73;;
40595;SDS011;26304;48.794;9.820;2024-01-25T04:44:03;1.35;;;0.70;;
40595;SDS011;26304;48.794;9.820;2024-01-25T04:46:26;1.90;;;1.00;;
40595;SDS011;26304;48.794;9.820;2024-01-25T04:48:49;1.38;;;0.82;;
40595;SDS011;26304;48.794;9.820;2024-01-25T04:51:14;0.88;;;0.80;;
40595;SDS011;26304;48.794;9.820;2024-01-25T04:53:39;1.38;;;0.77;;
40595;SDS011;26304;48.794;9.820;2024-01-25T04:56:02;1.08;;;0.70;;
40595;SDS011;26304;48.794;9.820;2024-01-25T04:58:25;1.25;;;0.90;;
40595;SDS011;26304;48.794;9.820;2024-01-25T05:00:47;0.95;;;0.70;;
40595;SDS011;26304;48.794;9.820;2024-01-25T05:03:11;0.90;;;0.80;;
40595;SDS011;26304;48.794;9.820;2024-01-25T05:05:34;0.90;;;0.70;;
40595;SDS011;26304;48.794;9.820;2024-01-25T05:07:56;1.50;;;0.88;;
40595;SDS011;26304;48.794;9.820;2024-01-25T05:10:20;2.70;;;0.70;;
40595;SDS011;26304;48.794;9.820;2024-01-25T05:12:43;3.50;;;0.95;;
40595;SDS011;26304;48.794;9.820;2024-01-25T05:15:06;0.93;;;0.80;;
40595;SDS011;26304;48.794;9.820;2024-01-25T05:17:30;1.48;;;0.73;;
40595;SDS011;26304;48.794;9.820;2024-01-25T05:19:52;1.95;;;0.80;;
40595;SDS011;26304;48.794;9.820;2024-01-25T05:22:14;0.85;;;0.60;;
40595;SDS011;26304;48.794;9.820;2024-01-25T05:24:38;1.83;;;0.80;;
40595;SDS011;26304;48.794;9.820;2024-01-25T05:27:01;3.15;;;0.73;;
40595;SDS011;26304;48.794;9.820;2024-01-25T05:29:24;1.33;;;0.80;;
40595;SDS011;26304;48.794;9.820;2024-01-25T05:31:47;2.28;;;1.00;;
40595;SDS011;26304;48.794;9.820;2024-01-25T05:34:10;1.88;;;0.77;;
40595;SDS011;26304;48.794;9.820;2024-01-25T05:36:33;0.80;;;0.60;;
40595;SDS011;26304;48.794;9.820;2024-01-25T05:38:55;5.80;;;1.15;;
40595;SDS011;26304;48.794;9.820;2024-01-25T05:41:18;2.95;;;1.08;;
40595;SDS011;26304;48.794;9.820;2024-01-25T05:43:42;1.38;;;0.85;;
40595;SDS011;26304;48.794;9.820;2024-01-25T05:46:04;1.70;;;0.70;;
40595;SDS011;26304;48.794;9.820;2024-01-25T05:48:27;1.00;;;0.55;;
40595;SDS011;26304;48.794;9.820;2024-01-25T05:50:49;2.20;;;0.88;;
40595;SDS011;26304;48.794;9.820;2024-01-25T05:53:12;1.60;;;0.70;;
40595;SDS011;26304;48.794;9.820;2024-01-25T05:55:37;4.10;;;0.68;;
40595;SDS011;26304;48.794;9.820;2024-01-25T05:58:00;0.70;;;0.70;;
40595;SDS011;26304;48.794;9.820;2024-01-25T06:00:24;1.48;;;0.60;;
40595;SDS011;26304;48.794;9.820;2024-01-25T06:02:47;1.80;;;0.70;;
40595;SDS011;26304;48.794;9.820;2024-01-25T06:05:09;0.85;;;0.52;;
40595;SDS011;26304;48.794;9.820;2024-01-25T06:07:32;0.75;;;0.75;;
40595;SDS011;26304;48.794;9.820;2024-01-25T06:09:55;1.48;;;0.70;;
40595;SDS011;26304;48.794;9.820;2024-01-25T06:12:17;0.85;;;0.60;;
40595;SDS011;26304;48.794;9.820;2024-01-25T06:14:40;1.00;;;0.50;;
40595;SDS011;26304;48.794;9.820;2024-01-25T06:17:04;1.88;;;0.82;;
40595;SDS011;26304;48.794;9.820;2024-01-25T06:19:26;1.88;;;0.70;;
40595;SDS011;26304;48.794;9.820;2024-01-25T06:21:49;3.05;;;0.93;;
40595;SDS011;26304;48.794;9.820;2024-01-25T06:24:12;2.45;;;1.20;;
40595;SDS011;26304;48.794;9.820;2024-01-25T06:26:34;4.47;;;1.17;;
40595;SDS011;26304;48.794;9.820;2024-01-25T06:28:57;3.17;;;1.27;;
40595;SDS011;26304;48.794;9.820;2024-01-25T06:31:20;5.65;;;1.42;;
40595;SDS011;26304;48.794;9.820;2024-01-25T06:33:44;5.60;;;1.45;;
40595;SDS011;26304;48.794;9.820;2024-01-25T06:36:11;4.25;;;1.35;;
40595;SDS011;26304;48.794;9.820;2024-01-25T06:38:35;4.55;;;1.00;;
40595;SDS011;26304;48.794;9.820;2024-01-25T06:40:57;1.95;;;1.23;;
40595;SDS011;26304;48.794;9.820;2024-01-25T06:43:20;2.85;;;1.02;;
40595;SDS011;26304;48.794;9.820;2024-01-25T06:45:43;4.50;;;1.20;;
40595;SDS011;26304;48.794;9.820;2024-01-25T06:48:05;4.60;;;1.38;;
40595;SDS011;26304;48.794;9.820;2024-01-25T06:50:30;3.85;;;1.20;;
40595;SDS011;26304;48.794;9.820;2024-01-25T06:52:53;4.18;;;1.40;;
40595;SDS011;26304;48.794;9.820;2024-01-25T06:55:16;3.92;;;1.10;;
40595;SDS011;26304;48.794;9.820;2024-01-25T06:57:38;2.65;;;1.10;;
40595;SDS011;26304;48.794;9.820;2024-01-25T07:00:01;5.90;;;1.40;;
40595;SDS011;26304;48.794;9.820;2024-01-25T07:02:24;4.18;;;1.13;;
40595;SDS011;26304;48.794;9.820;2024-01-25T07:04:47;2.47;;;1.25;;
40595;SDS011;26304;48.794;9.820;2024-01-25T07:07:11;2.05;;;1.00;;
40595;SDS011;26304;48.794;9.820;2024-01-25T07:09:34;3.35;;;1.20;;
40595;SDS011;26304;48.794;9.820;2024-01-25T07:11:56;1.95;;;0.95;;
40595;SDS011;26304;48.794;9.820;2024-01-25T07:14:19;1.08;;;0.80;;
40595;SDS011;26304;48.794;9.820;2024-01-25T07:16:41;2.97;;;1.13;;
40595;SDS011;26304;48.794;9.820;2024-01-25T07:19:04;4.35;;;1.20;;
40595;SDS011;26304;48.794;9.820;2024-01-25T07:21:26;3.28;;;1.00;;
40595;SDS011;26304;48.794;9.820;2024-01-25T07:23:50;3.38;;;1.42;;
40595;SDS011;26304;48.794;9.820;2024-01-25T07:26:16;1.83;;;0.90;;
40595;SDS011;26304;48.794;9.820;2024-01-25T07:28:39;1.75;;;0.95;;
40595;SDS011;26304;48.794;9.820;2024-01-25T07:31:01;2.10;;;1.08;;
40595;SDS011;26304;48.794;9.820;2024-01-25T07:33:24;3.00;;;1.25;;
40595;SDS011;26304;48.794;9.820;2024-01-25T07:35:47;1.83;;;1.00;;
40595;SDS011;26304;48.794;9.820;2024-01-25T07:38:09;2.63;;;1.13;;
40595;SDS011;26304;48.794;9.820;2024-01-25T07:40:33;1.60;;;1.00;;
40595;SDS011;26304;48.794;9.820;2024-01-25T07:42:56;1.73;;;0.90;;
40595;SDS011;26304;48.794;9.820;2024-01-25T07:45:18;2.20;;;0.80;;
40595;SDS011;26304;48.794;9.820;2024-01-25T07:47:41;2.28;;;0.93;;
40595;SDS011;26304;48.794;9.820;2024-01-25T07:50:05;2.05;;;1.00;;
40595;SDS011;26304;48.794;9.820;2024-01-25T07:52:28;2.88;;;0.95;;
40595;SDS011;26304;48.794;9.820;2024-01-25T07:54:51;1.98;;;0.90;;
40595;SDS011;26304;48.794;9.820;2024-01-25T07:57:16;1.25;;;0.80;;
40595;SDS011;26304;48.794;9.820;2024-01-25T07:59:39;1.83;;;0.82;;
40595;SDS011;26304;48.794;9.820;2024-01-25T08:02:01;1.75;;;0.90;;
40595;SDS011;26304;48.794;9.820;2024-01-25T08:04:24;1.58;;;1.00;;
40595;SDS011;26304;48.794;9.820;2024-01-25T08:06:47;2.60;;;0.95;;
40595;SDS011;26304;48.794;9.820;2024-01-25T08:09:10;1.05;;;0.90;;
40595;SDS011;26304;48.794;9.820;2024-01-25T08:11:32;1.90;;;0.80;;
40595;SDS011;26304;48.794;9.820;2024-01-25T08:13:56;1.35;;;0.75;;
40595;SDS011;26304;48.794;9.820;2024-01-25T08:16:19;1.27;;;1.00;;
40595;SDS011;26304;48.794;9.820;2024-01-25T08:18:42;1.23;;;0.90;;
40595;SDS011;26304;48.794;9.820;2024-01-25T08:21:05;2.17;;;0.90;;
40595;SDS011;26304;48.794;9.820;2024-01-25T08:23:27;1.30;;;0.60;;
40595;SDS011;26304;48.794;9.820;2024-01-25T08:25:50;1.17;;;0.57;;
40595;SDS011;26304;48.794;9.820;2024-01-25T08:28:12;1.80;;;0.90;;
40595;SDS011;26304;48.794;9.820;2024-01-25T08:30:36;2.15;;;0.63;;
40595;SDS011;26304;48.794;9.820;2024-01-25T08:32:59;2.17;;;1.02;;
40595;SDS011;26304;48.794;9.820;2024-01-25T08:35:22;1.90;;;0.90;;
40595;SDS011;26304;48.794;9.820;2024-01-25T08:37:44;1.15;;;0.95;;
40595;SDS011;26304;48.794;9.820;2024-01-25T08:40:07;0.80;;;0.60;;
40595;SDS011;26304;48.794;9.820;2024-01-25T08:42:31;1.95;;;1.00;;
40595;SDS011;26304;48.794;9.820;2024-01-25T08:44:53;1.30;;;0.80;;
40595;SDS011;26304;48.794;9.820;2024-01-25T08:47:18;1.65;;;0.88;;
40595;SDS011;26304;48.794;9.820;2024-01-25T08:49:40;2.28;;;0.88;;
40595;SDS011;26304;48.794;9.820;2024-01-25T08:52:03;0.85;;;0.60;;
40595;SDS011;26304;48.794;9.820;2024-01-25T08:54:27;2.30;;;1.02;;
40595;SDS011;26304;48.794;9.820;2024-01-25T08:56:50;1.95;;;0.70;;
40595;SDS011;26304;48.794;9.820;2024-01-25T08:59:12;1.00;;;0.60;;
40595;SDS011;26304;48.794;9.820;2024-01-25T09:01:35;1.38;;;0.75;;
40595;SDS011;26304;48.794;9.820;2024-01-25T09:03:59;2.03;;;0.90;;
40595;SDS011;26304;48.794;9.820;2024-01-25T09:06:23;1.35;;;0.88;;
40595;SDS011;26304;48.794;9.820;2024-01-25T09:08:46;2.22;;;0.90;;
40595;SDS011;26304;48.794;9.820;2024-01-25T09:11:08;1.13;;;0.80;;
40595;SDS011;26304;48.794;9.820;2024-01-25T09:13:31;1.77;;;0.70;;
40595;SDS011;26304;48.794;9.820;2024-01-25T09:15:54;0.98;;;0.80;;
40595;SDS011;26304;48.794;9.820;2024-01-25T09:18:16;0.60;;;0.60;;
40595;SDS011;26304;48.794;9.820;2024-01-25T09:20:41;1.95;;;1.00;;
40595;SDS011;26304;48.794;9.820;2024-01-25T09:23:08;1.38;;;0.60;;
40595;SDS011;26304;48.794;9.820;2024-01-25T09:25:31;1.23;;;0.85;;
40595;SDS011;26304;48.794;9.820;2024-01-25T09:27:54;1.85;;;0.70;;
40595;SDS011;26304;48.794;9.820;2024-01-25T09:30:18;2.42;;;0.88;;
40595;SDS011;26304;48.794;9.820;2024-01-25T09:32:40;1.02;;;0.70;;
40595;SDS011;26304;48.794;9.820;2024-01-25T09:35:03;1.50;;;0.77;;
40595;SDS011;26304;48.794;9.820;2024-01-25T09:37:27;1.83;;;0.95;;
40595;SDS011;26304;48.794;9.820;2024-01-25T09:39:50;1.92;;;1.00;;
40595;SDS011;26304;48.794;9.820;2024-01-25T09:42:13;0.63;;;0.45;;
40595;SDS011;26304;48.794;9.820;2024-01-25T09:44:36;1.55;;;0.65;;
40595;SDS011;26304;48.794;9.820;2024-01-25T09:47:00;1.60;;;0.73;;
40595;SDS011;26304;48.794;9.820;2024-01-25T09:49:26;2.22;;;0.82;;
40595;SDS011;26304;48.794;9.820;2024-01-25T09:51:49;1.85;;;0.80;;
40595;SDS011;26304;48.794;9.820;2024-01-25T09:54:14;2.15;;;0.80;;
40595;SDS011;26304;48.794;9.820;2024-01-25T09:56:38;1.13;;;0.80;;
40595;SDS011;26304;48.794;9.820;2024-01-25T09:59:03;1.48;;;1.00;;
40595;SDS011;26304;48.794;9.820;2024-01-25T10:01:26;1.80;;;0.77;;
40595;SDS011;26304;48.794;9.820;2024-01-25T10:03:49;0.75;;;0.75;;
40595;SDS011;26304;48.794;9.820;2024-01-25T10:06:12;1.13;;;0.73;;
40595;SDS011;26304;48.794;9.820;2024-01-25T10:08:35;0.82;;;0.80;;
40595;SDS011;26304;48.794;9.820;2024-01-25T10:10:59;2.45;;;0.90;;
40595;SDS011;26304;48.794;9.820;2024-01-25T10:13:22;1.38;;;0.93;;
40595;SDS011;26304;48.794;9.820;2024-01-25T10:15:44;0.63;;;0.63;;
40595;SDS011;26304;48.794;9.820;2024-01-25T10:18:08;2.22;;;0.60;;
40595;SDS011;26304;48.794;9.820;2024-01-25T10:20:34;1.40;;;0.70;;
40595;SDS011;26304;48.794;9.820;2024-01-25T10:22:57;1.25;;;0.85;;
40595;SDS011;26304;48.794;9.820;2024-01-25T10:25:20;0.80;;;0.70;;
40595;SDS011;26304;48.794;9.820;2024-01-25T10:27:43;1.13;;;0.68;;
40595;SDS011;26304;48.794;9.820;2024-01-25T10:30:07;1.15;;;0.80;;
40595;SDS011;26304;48.794;9.820;2024-01-25T10:32:31;0.60;;;0.50;;
40595;SDS011;26304;48.794;9.820;2024-01-25T10:34:54;1.88;;;0.73;;
40595;SDS011;26304;48.794;9.820;2024-01-25T10:37:17;1.05;;;0.80;;
40595;SDS011;26304;48.794;9.820;2024-01-25T10:39:42;1.63;;;0.75;;
40595;SDS011;26304;48.794;9.820;2024-01-25T10:42:06;1.40;;;0.95;;
40595;SDS011;26304;48.794;9.820;2024-01-25T10:44:30;1.65;;;0.80;;
40595;SDS011;26304;48.794;9.820;2024-01-25T10:46:53;1.17;;;0.80;;
40595;SDS011;26304;48.794;9.820;2024-01-25T10:49:16;2.05;;;0.80;;
40595;SDS011;26304;48.794;9.820;2024-01-25T10:51:39;2.33;;;0.75;;
40595;SDS011;26304;48.794;9.820;2024-01-25T10:54:03;0.98;;;0.70;;
40595;SDS011;26304;48.794;9.820;2024-01-25T10:56:27;1.40;;;0.60;;
40595;SDS011;26304;48.794;9.820;2024-01-25T10:58:50;1.90;;;0.80;;
40595;SDS011;26304;48.794;9.820;2024-01-25T11:01:16;1.73;;;0.90;;
40595;SDS011;26304;48.794;9.820;2024-01-25T11:03:39;1.23;;;0.70;;
40595;SDS011;26304;48.794;9.820;2024-01-25T11:06:06;1.75;;;0.88;;
40595;SDS011;26304;48.794;9.820;2024-01-25T11:08:30;2.17;;;1.15;;
40595;SDS011;26304;48.794;9.820;2024-01-25T11:10:52;3.65;;;1.63;;
40595;SDS011;26304;48.794;9.820;2024-01-25T11:13:15;5.85;;;1.65;;
40595;SDS011;26304;48.794;9.820;2024-01-25T11:15:38;4.63;;;1.85;;
40595;SDS011;26304;48.794;9.820;2024-01-25T11:18:03;5.40;;;2.25;;
40595;SDS011;26304;48.794;9.820;2024-01-25T11:20:29;4.20;;;2.08;;
40595;SDS011;26304;48.794;9.820;2024-01-25T11:22:55;7.05;;;2.80;;
40595;SDS011;26304;48.794;9.820;2024-01-25T11:25:20;7.68;;;3.05;;
40595;SDS011;26304;48.794;9.820;2024-01-25T11:27:42;7.05;;;2.28;;
40595;SDS011;26304;48.794;9.820;2024-01-25T11:30:05;6.15;;;2.22;;
40595;SDS011;26304;48.794;9.820;2024-01-25T11:32:30;8.02;;;3.10;;
40595;SDS011;26304;48.794;9.820;2024-01-25T11:34:58;8.50;;;2.58;;
40595;SDS011;26304;48.794;9.820;2024-01-25T11:37:22;7.78;;;2.90;;
40595;SDS011;26304;48.794;9.820;2024-01-25T11:39:44;7.47;;;3.05;;
40595;SDS011;26304;48.794;9.820;2024-01-25T11:42:07;5.65;;;2.05;;
40595;SDS011;26304;48.794;9.820;2024-01-25T11:44:29;5.40;;;2.60;;
40595;SDS011;26304;48.794;9.820;2024-01-25T11:46:53;7.45;;;2.92;;
40595;SDS011;26304;48.794;9.820;2024-01-25T11:49:16;5.60;;;2.40;;
40595;SDS011;26304;48.794;9.820;2024-01-25T11:51:40;7.38;;;2.25;;
40595;SDS011;26304;48.794;9.820;2024-01-25T11:54:03;7.45;;;3.05;;
40595;SDS011;26304;48.794;9.820;2024-01-25T11:56:28;6.05;;;2.90;;
40595;SDS011;26304;48.794;9.820;2024-01-25T11:58:52;11.63;;;3.33;;
40595;SDS011;26304;48.794;9.820;2024-01-25T12:01:17;7.88;;;2.58;;
40595;SDS011;26304;48.794;9.820;2024-01-25T12:03:41;7.13;;;2.60;;
40595;SDS011;26304;48.794;9.820;2024-01-25T12:06:04;7.65;;;2.38;;
40595;SDS011;26304;48.794;9.820;2024-01-25T12:08:31;6.45;;;2.67;;
40595;SDS011;26304;48.794;9.820;2024-01-25T12:11:02;6.00;;;2.42;;
40595;SDS011;26304;48.794;9.820;2024-01-25T12:13:26;7.22;;;3.35;;
40595;SDS011;26304;48.794;9.820;2024-01-25T12:15:48;6.60;;;3.00;;
40595;SDS011;26304;48.794;9.820;2024-01-25T12:18:11;6.95;;;2.88;;
40595;SDS011;26304;48.794;9.820;2024-01-25T12:20:35;6.30;;;2.78;;
40595;SDS011;26304;48.794;9.820;2024-01-25T12:22:58;5.88;;;2.78;;
40595;SDS011;26304;48.794;9.820;2024-01-25T12:25:22;7.95;;;3.22;;
40595;SDS011;26304;48.794;9.820;2024-01-25T12:27:45;7.65;;;2.95;;
40595;SDS011;26304;48.794;9.820;2024-01-25T12:30:10;7.80;;;2.78;;
40595;SDS011;26304;48.794;9.820;2024-01-25T12:32:34;6.35;;;2.70;;
40595;SDS011;26304;48.794;9.820;2024-01-25T12:34:57;8.60;;;2.88;;
40595;SDS011;26304;48.794;9.820;2024-01-25T12:37:22;6.53;;;3.10;;
40595;SDS011;26304;48.794;9.820;2024-01-25T12:39:45;7.57;;;2.75;;
40595;SDS011;26304;48.794;9.820;2024-01-25T12:42:09;5.47;;;2.70;;
40595;SDS011;26304;48.794;9.820;2024-01-25T12:44:32;7.03;;;2.75;;
40595;SDS011;26304;48.794;9.820;2024-01-25T12:46:55;6.95;;;3.15;;
40595;SDS011;26304;48.794;9.820;2024-01-25T12:49:17;5.93;;;2.75;;
40595;SDS011;26304;48.794;9.820;2024-01-25T12:51:42;7.45;;;2.97;;
40595;SDS011;26304;48.794;9.820;2024-01-25T12:54:05;5.93;;;2.55;;
40595;SDS011;26304;48.794;9.820;2024-01-25T12:56:28;5.78;;;2.67;;
40595;SDS011;26304;48.794;9.820;2024-01-25T12:58:52;5.68;;;2.42;;
40595;SDS011;26304;48.794;9.820;2024-01-25T13:01:15;5.95;;;2.45;;
40595;SDS011;26304;48.794;9.820;2024-01-25T13:03:37;7.43;;;2.85;;
40595;SDS011;26304;48.794;9.820;2024-01-25T13:06:00;7.55;;;2.58;;
40595;SDS011;26304;48.794;9.820;2024-01-25T13:08:24;6.47;;;2.22;;
40595;SDS011;26304;48.794;9.820;2024-01-25T13:10:46;5.35;;;2.67;;
40595;SDS011;26304;48.794;9.820;2024-01-25T13:13:09;6.80;;;2.80;;
40595;SDS011;26304;48.794;9.820;2024-01-25T13:15:33;7.22;;;2.47;;
40595;SDS011;26304;48.794;9.820;2024-01-25T13:17:56;6.70;;;2.67;;
40595;SDS011;26304;48.794;9.820;2024-01-25T13:20:21;5.63;;;2.42;;
40595;SDS011;26304;48.794;9.820;2024-01-25T13:22:44;5.40;;;2.55;;
40595;SDS011;26304;48.794;9.820;2024-01-25T13:25:07;7.80;;;2.95;;
40595;SDS011;26304;48.794;9.820;2024-01-25T13:27:31;6.28;;;2.28;;
40595;SDS011;26304;48.794;9.820;2024-01-25T13:29:54;5.88;;;2.92;;
40595;SDS011;26304;48.794;9.820;2024-01-25T13:32:18;6.90;;;2.53;;
40595;SDS011;26304;48.794;9.820;2024-01-25T13:34:41;6.75;;;2.72;;
40595;SDS011;26304;48.794;9.820;2024-01-25T13:37:04;7.00;;;2.95;;
40595;SDS011;26304;48.794;9.820;2024-01-25T13:39:26;5.85;;;2.85;;
40595;SDS011;26304;48.794;9.820;2024-01-25T13:41:49;5.55;;;2.30;;
40595;SDS011;26304;48.794;9.820;2024-01-25T13:44:11;5.88;;;2.58;;
40595;SDS011;26304;48.794;9.820;2024-01-25T13:46:36;6.57;;;2.45;;
40595;SDS011;26304;48.794;9.820;2024-01-25T13:48:59;7.28;;;2.83;;
40595;SDS011;26304;48.794;9.820;2024-01-25T13:51:22;4.70;;;2.30;;
40595;SDS011;26304;48.794;9.820;2024-01-25T13:53:44;6.13;;;2.67;;
40595;SDS011;26304;48.794;9.820;2024-01-25T13:56:08;6.57;;;2.83;;
40595;SDS011;26304;48.794;9.820;2024-01-25T13:58:31;6.00;;;2.20;;
40595;SDS011;26304;48.794;9.820;2024-01-25T14:00:53;6.15;;;2.38;;
40595;SDS011;26304;48.794;9.820;2024-01-25T14:03:16;5.45;;;2.38;;
40595;SDS011;26304;48.794;9.820;2024-01-25T14:05:40;5.45;;;2.08;;
40595;SDS011;26304;48.794;9.820;2024-01-25T14:08:03;5.75;;;2.60;;
40595;SDS011;26304;48.794;9.820;2024-01-25T14:10:26;5.28;;;2.33;;
40595;SDS011;26304;48.794;9.820;2024-01-25T14:12:50;6.78;;;2.38;;
40595;SDS011;26304;48.794;9.820;2024-01-25T14:15:12;4.68;;;2.08;;
40595;SDS011;26304;48.794;9.820;2024-01-25T14:17:35;6.43;;;2.53;;
40595;SDS011;26304;48.794;9.820;2024-01-25T14:19:58;8.25;;;2.50;;
40595;SDS011;26304;48.794;9.820;2024-01-25T14:22:22;4.43;;;2.40;;